Time;durP1;ratioP1;P1;durP2;ratioP2;P2;SDS_P1;SDS_P2;PMS_P1;PMS_P2;Temp;Humidity;BMP_temperature;BMP_pressure;BME280_temperature;BME280_humidity;BME280_pressure;Samples;Min_cycle;Max_cycle;Signal;HPM_P1;HPM_P2
2022/05/17 00:02:22;;;;;;;0.30;0.30;;;12.80;99.90;;;;;;5034673;28;20450;-70
2022/05/17 00:04:47;;;;;;;0.30;0.30;;;12.80;99.90;;;;;;5034658;28;20232;-70
2022/05/17 00:07:13;;;;;;;0.30;0.30;;;12.80;99.90;;;;;;5034675;28;20654;-70
2022/05/17 00:09:39;;;;;;;0.73;0.63;;;12.80;99.90;;;;;;5034442;28;20193;-70
2022/05/17 00:12:05;;;;;;;0.30;0.30;;;12.80;99.90;;;;;;5034488;28;20404;-68
2022/05/17 00:14:32;;;;;;;0.30;0.30;;;12.70;99.90;;;;;;5034322;28;20709;-70
2022/05/17 00:16:58;;;;;;;0.30;0.30;;;12.80;99.90;;;;;;5034518;28;20402;-69
2022/05/17 00:19:24;;;;;;;0.30;0.30;;;12.80;99.90;;;;;;5034267;28;20442;-69
2022/05/17 00:21:51;;;;;;;0.30;0.30;;;12.80;99.90;;;;;;5034465;28;20901;-70
2022/05/17 00:24:18;;;;;;;0.30;0.30;;;12.80;99.90;;;;;;5034033;28;20417;-71
2022/05/17 00:26:44;;;;;;;0.30;0.30;;;12.70;99.90;;;;;;5034320;28;20448;-69
2022/05/17 00:29:11;;;;;;;0.30;0.30;;;12.80;99.90;;;;;;5034296;28;20429;-69
2022/05/17 00:31:37;;;;;;;0.30;0.30;;;12.80;99.90;;;;;;5034166;28;20811;-71
2022/05/17 00:34:04;;;;;;;0.40;0.40;;;12.70;99.90;;;;;;5033751;28;20449;-69
2022/05/17 00:36:33;;;;;;;0.37;0.37;;;12.70;99.90;;;;;;5033850;28;20448;-69
2022/05/17 00:38:59;;;;;;;0.30;0.30;;;12.80;99.90;;;;;;5033935;28;20442;-69
2022/05/17 00:41:25;;;;;;;0.30;0.30;;;12.80;99.90;;;;;;5033909;28;20772;-70
2022/05/17 00:46:57;;;;;;;0.30;0.30;;;12.80;99.90;;;;;;5034370;28;20183;-70
2022/05/17 00:49:42;;;;;;;0.30;0.30;;;12.80;99.90;;;;;;5033869;28;20421;-68
2022/05/17 00:52:21;;;;;;;0.30;0.30;;;12.70;99.90;;;;;;5033751;28;20435;-69
2022/05/17 00:54:48;;;;;;;0.30;0.30;;;12.70;99.90;;;;;;5033960;28;20444;-71
2022/05/17 00:57:40;;;;;;;0.30;0.30;;;12.70;99.90;;;;;;5033770;28;20397;-69
2022/05/17 01:00:12;;;;;;;0.30;0.30;;;12.60;99.90;;;;;;5033223;28;20499;-70
2022/05/17 01:02:41;;;;;;;0.30;0.30;;;12.60;99.90;;;;;;5033687;28;20410;-69
2022/05/17 01:05:07;;;;;;;0.30;0.30;;;12.50;99.90;;;;;;5033655;28;20405;-70
2022/05/17 01:07:46;;;;;;;0.30;0.30;;;12.20;99.90;;;;;;5033558;28;20393;-71
2022/05/17 01:10:12;;;;;;;0.30;0.30;;;12.30;99.90;;;;;;5033545;28;20431;-70
2022/05/17 01:12:39;;;;;;;0.30;0.30;;;12.30;99.90;;;;;;5033305;28;20449;-68
2022/05/17 01:15:07;;;;;;;0.30;0.30;;;12.20;99.90;;;;;;5033453;28;20397;-69
2022/05/17 01:17:34;;;;;;;0.30;0.30;;;12.20;99.90;;;;;;5033650;28;20414;-70
2022/05/17 01:20:03;;;;;;;0.30;0.30;;;12.30;99.90;;;;;;5033331;28;20278;-70
2022/05/17 01:22:29;;;;;;;0.30;0.30;;;12.30;99.90;;;;;;5033173;28;20179;-70
2022/05/17 01:24:55;;;;;;;0.40;0.40;;;12.20;99.90;;;;;;5033574;28;20406;-71
2022/05/17 01:27:42;;;;;;;0.30;0.30;;;12.20;99.90;;;;;;5033487;28;20432;-69
2022/05/17 01:30:18;;;;;;;2.67;2.57;;;12.20;99.90;;;;;;5033537;28;20549;-69
2022/05/17 01:32:44;;;;;;;0.40;0.40;;;12.20;99.90;;;;;;5033233;28;20882;-69
2022/05/17 01:35:10;;;;;;;0.30;0.30;;;12.30;99.90;;;;;;5033248;28;20500;-68
2022/05/17 01:37:35;;;;;;;0.30;0.30;;;12.30;99.90;;;;;;5033335;28;20531;-68
2022/05/17 01:40:01;;;;;;;0.30;0.30;;;12.20;99.90;;;;;;5033225;28;20256;-69
2022/05/17 01:42:27;;;;;;;0.30;0.30;;;12.20;99.90;;;;;;5033230;28;20694;-70
2022/05/17 01:44:52;;;;;;;0.30;0.30;;;12.20;99.90;;;;;;5033543;28;20502;-68
2022/05/17 01:47:18;;;;;;;0.40;0.40;;;12.20;99.90;;;;;;5034853;28;20168;-68
2022/05/17 01:49:44;;;;;;;0.30;0.30;;;12.30;99.90;;;;;;5037115;28;20194;-71
2022/05/17 01:52:09;;;;;;;0.30;0.30;;;12.20;99.90;;;;;;5037105;28;20706;-70
2022/05/17 01:54:35;;;;;;;0.30;0.30;;;12.20;99.90;;;;;;5037232;28;20180;-70
2022/05/17 01:57:01;;;;;;;0.37;0.37;;;12.30;99.90;;;;;;5037031;28;20404;-69
2022/05/17 01:59:27;;;;;;;0.30;0.30;;;12.40;99.90;;;;;;5036900;28;20198;-69
2022/05/17 02:01:52;;;;;;;0.30;0.30;;;12.40;99.90;;;;;;5037000;28;20406;-69
2022/05/17 02:04:18;;;;;;;0.30;0.30;;;12.30;99.90;;;;;;5036804;28;20203;-70
2022/05/17 02:06:43;;;;;;;0.30;0.30;;;12.40;99.90;;;;;;5036734;28;20167;-71
2022/05/17 02:09:09;;;;;;;0.30;0.30;;;12.40;99.90;;;;;;5036741;28;20193;-70
2022/05/17 02:11:35;;;;;;;0.30;0.30;;;12.40;99.90;;;;;;5036929;28;20625;-71
2022/05/17 02:14:01;;;;;;;0.30;0.30;;;12.40;99.90;;;;;;5035229;28;20492;-69
2022/05/17 02:16:27;;;;;;;0.30;0.30;;;12.30;99.90;;;;;;5036664;28;20167;-70
2022/05/17 02:18:53;;;;;;;0.30;0.30;;;12.40;99.90;;;;;;5036688;28;20471;-70
2022/05/17 02:21:18;;;;;;;0.30;0.30;;;12.40;99.90;;;;;;5036404;28;20428;-70
2022/05/17 02:23:44;;;;;;;0.30;0.30;;;12.40;99.90;;;;;;5036363;28;20171;-70
2022/05/17 02:26:10;;;;;;;0.40;0.40;;;12.30;99.90;;;;;;5036679;28;20162;-70
2022/05/17 02:28:35;;;;;;;0.30;0.30;;;12.30;99.90;;;;;;5036543;28;20548;-70
2022/05/17 02:31:02;;;;;;;0.30;0.30;;;12.30;99.90;;;;;;5036472;28;20178;-69
2022/05/17 02:33:27;;;;;;;0.30;0.30;;;12.30;99.90;;;;;;5036137;28;20198;-70
2022/05/17 02:35:53;;;;;;;0.30;0.30;;;12.20;99.90;;;;;;5036401;28;20435;-69
2022/05/17 02:38:19;;;;;;;0.30;0.30;;;12.20;99.90;;;;;;5036361;28;20448;-68
2022/05/17 02:40:44;;;;;;;0.30;0.30;;;12.30;99.90;;;;;;5036210;28;20636;-69
2022/05/17 02:43:13;;;;;;;0.30;0.30;;;12.40;99.90;;;;;;5036183;28;20717;-69
2022/05/17 02:45:39;;;;;;;0.30;0.30;;;12.40;99.90;;;;;;5036203;28;20272;-69
2022/05/17 02:48:05;;;;;;;0.30;0.30;;;12.40;99.90;;;;;;5036065;28;20190;-70
2022/05/17 02:50:32;;;;;;;0.30;0.30;;;12.50;99.90;;;;;;5035898;28;20779;-68
2022/05/17 02:52:58;;;;;;;0.30;0.30;;;12.50;99.90;;;;;;5035723;28;20892;-71
2022/05/17 02:55:24;;;;;;;0.30;0.30;;;12.40;99.90;;;;;;5035926;28;20410;-68
2022/05/17 02:57:49;;;;;;;0.50;0.50;;;12.50;99.90;;;;;;5035589;28;20183;-68
2022/05/17 03:00:17;;;;;;;0.30;0.30;;;12.50;99.90;;;;;;5035929;28;20179;-69
2022/05/17 03:02:43;;;;;;;0.30;0.30;;;12.50;99.90;;;;;;5035700;28;20646;-70
2022/05/17 03:05:10;;;;;;;0.30;0.30;;;12.40;99.90;;;;;;5035883;28;20398;-69
2022/05/17 03:07:36;;;;;;;0.30;0.30;;;12.50;99.90;;;;;;5035813;28;20413;-68
2022/05/17 03:10:01;;;;;;;0.30;0.30;;;12.40;99.90;;;;;;5035692;28;20179;-71
2022/05/17 03:12:27;;;;;;;0.30;0.30;;;12.40;99.90;;;;;;5035352;28;20574;-69
2022/05/17 03:14:53;;;;;;;0.30;0.30;;;12.40;99.90;;;;;;5035712;28;20434;-71
2022/05/17 03:17:19;;;;;;;0.30;0.30;;;12.30;99.90;;;;;;5035831;28;20637;-68
2022/05/17 03:19:45;;;;;;;0.30;0.30;;;12.40;99.90;;;;;;5035442;28;20467;-67
2022/05/17 03:22:11;;;;;;;0.30;0.30;;;12.30;99.90;;;;;;5035523;28;20225;-68
2022/05/17 03:24:37;;;;;;;0.30;0.30;;;12.40;99.90;;;;;;5035417;28;20436;-70
2022/05/17 03:27:04;;;;;;;0.30;0.30;;;12.30;99.90;;;;;;5035434;28;20175;-71
2022/05/17 03:29:30;;;;;;;0.47;0.47;;;12.20;99.90;;;;;;5035261;28;20252;-69
2022/05/17 03:31:55;;;;;;;0.40;0.40;;;12.20;99.90;;;;;;5035406;28;20965;-68
2022/05/17 03:34:21;;;;;;;0.40;0.40;;;12.20;99.90;;;;;;5035105;28;20205;-70
2022/05/17 03:36:47;;;;;;;0.30;0.30;;;12.20;99.90;;;;;;5035152;28;20397;-68
2022/05/17 03:39:13;;;;;;;0.30;0.30;;;12.30;99.90;;;;;;5035016;28;20475;-71
2022/05/17 03:41:38;;;;;;;0.30;0.30;;;12.30;99.90;;;;;;5035252;28;20249;-70
2022/05/17 03:44:04;;;;;;;0.30;0.30;;;12.30;99.90;;;;;;5034983;28;20205;-69
2022/05/17 03:46:30;;;;;;;0.30;0.30;;;12.40;99.90;;;;;;5035108;28;20182;-68
2022/05/17 03:48:56;;;;;;;0.30;0.30;;;12.40;99.90;;;;;;5034774;28;20425;-69
2022/05/17 03:51:22;;;;;;;0.30;0.30;;;12.30;99.90;;;;;;5034887;28;20178;-68
2022/05/17 03:53:50;;;;;;;0.30;0.30;;;12.40;99.90;;;;;;5034681;28;20329;-70
2022/05/17 03:56:16;;;;;;;0.30;0.30;;;12.40;99.90;;;;;;5033621;28;20404;-69
2022/05/17 03:58:43;;;;;;;0.30;0.30;;;12.50;99.90;;;;;;5034661;28;20436;-70
2022/05/17 04:01:09;;;;;;;0.30;0.30;;;12.50;99.90;;;;;;5034689;28;20413;-70
2022/05/17 04:03:37;;;;;;;0.30;0.30;;;12.60;99.90;;;;;;5034442;28;20908;-69
2022/05/17 04:06:03;;;;;;;0.30;0.30;;;12.70;99.90;;;;;;5034571;28;20408;-70
2022/05/17 04:08:29;;;;;;;0.30;0.30;;;12.60;99.90;;;;;;5034502;28;20865;-70
2022/05/17 04:10:55;;;;;;;0.30;0.30;;;12.70;99.90;;;;;;5033569;28;20408;-70
2022/05/17 04:13:21;;;;;;;0.50;0.50;;;12.70;99.90;;;;;;5034079;28;20452;-69
2022/05/17 04:15:47;;;;;;;0.30;0.30;;;12.80;99.90;;;;;;5034450;28;20645;-71
2022/05/17 04:18:13;;;;;;;0.30;0.30;;;12.80;99.90;;;;;;5034204;28;20528;-71
2022/05/17 04:20:38;;;;;;;0.30;0.30;;;12.90;99.90;;;;;;5034100;28;20222;-71
2022/05/17 04:23:04;;;;;;;0.30;0.30;;;13.00;99.90;;;;;;5034325;28;20444;-70
2022/05/17 04:25:30;;;;;;;0.30;0.30;;;13.00;99.90;;;;;;5034353;28;20246;-70
2022/05/17 04:27:56;;;;;;;4.30;1.80;;;13.10;99.90;;;;;;5034241;28;20192;-70
2022/05/17 04:30:22;;;;;;;0.30;0.30;;;13.20;99.90;;;;;;5034102;28;20659;-70
2022/05/17 04:32:49;;;;;;;0.47;0.47;;;13.20;99.90;;;;;;5034023;28;20453;-69
2022/05/17 04:35:16;;;;;;;0.30;0.30;;;13.20;99.90;;;;;;5034077;28;20393;-70
2022/05/17 04:37:41;;;;;;;0.40;0.40;;;13.30;99.90;;;;;;5034165;28;20407;-69
2022/05/17 04:40:10;;;;;;;0.33;0.33;;;13.40;99.90;;;;;;5034014;28;20418;-71
2022/05/17 04:42:37;;;;;;;0.30;0.30;;;13.60;99.90;;;;;;5033885;28;20176;-69
2022/05/17 04:45:05;;;;;;;0.30;0.30;;;13.80;99.90;;;;;;5034463;28;20400;-70
2022/05/17 04:47:31;;;;;;;0.30;0.30;;;14.20;99.90;;;;;;5032391;28;20493;-70
2022/05/17 04:49:57;;;;;;;0.30;0.30;;;14.50;99.90;;;;;;5033769;28;20945;-70
2022/05/17 04:52:23;;;;;;;0.30;0.30;;;14.90;99.90;;;;;;5033507;28;20179;-71
2022/05/17 04:54:49;;;;;;;0.30;0.30;;;15.30;99.90;;;;;;5033903;28;20395;-70
2022/05/17 04:57:15;;;;;;;0.30;0.30;;;16.10;99.90;;;;;;5033967;28;20406;-71
2022/05/17 04:59:41;;;;;;;0.30;0.30;;;17.10;99.90;;;;;;5033797;28;20422;-70
2022/05/17 05:02:07;;;;;;;0.30;0.30;;;18.10;99.70;;;;;;5033529;28;20558;-70
2022/05/17 05:04:33;;;;;;;0.47;0.47;;;18.90;98.20;;;;;;5033700;28;20177;-71
2022/05/17 05:06:59;;;;;;;0.30;0.30;;;19.50;96.50;;;;;;5031751;28;20411;-70
2022/05/17 05:09:25;;;;;;;0.30;0.30;;;20.00;95.10;;;;;;5033523;28;20798;-71
2022/05/17 05:11:51;;;;;;;0.30;0.30;;;20.30;92.90;;;;;;5033752;28;20170;-70
2022/05/17 05:14:16;;;;;;;0.30;0.30;;;20.50;92.80;;;;;;5033249;28;20977;-69
2022/05/17 05:16:42;;;;;;;0.40;0.40;;;20.50;92.80;;;;;;5033741;28;20170;-70
2022/05/17 05:19:07;;;;;;;0.50;0.50;;;20.40;92.70;;;;;;5033386;28;20191;-70
2022/05/17 05:21:33;;;;;;;0.30;0.30;;;20.30;92.60;;;;;;5033536;28;20174;-70
2022/05/17 05:24:00;;;;;;;0.30;0.30;;;20.10;92.90;;;;;;5033469;28;20184;-69
2022/05/17 05:26:26;;;;;;;0.30;0.30;;;20.00;92.90;;;;;;5033623;28;20898;-70
2022/05/17 05:28:51;;;;;;;0.30;0.30;;;19.70;92.90;;;;;;5033455;28;20523;-70
2022/05/17 05:31:17;;;;;;;0.30;0.30;;;19.50;92.90;;;;;;5033569;28;20181;-71
2022/05/17 05:33:43;;;;;;;0.30;0.30;;;19.30;93.30;;;;;;5033303;28;20229;-71
2022/05/17 05:36:10;;;;;;;0.40;0.40;;;19.10;94.10;;;;;;5033412;28;20401;-69
2022/05/17 05:38:35;;;;;;;0.40;0.40;;;19.00;93.80;;;;;;5033217;28;20268;-70
2022/05/17 05:41:01;;;;;;;0.30;0.30;;;19.00;94.40;;;;;;5033357;28;20436;-71
2022/05/17 05:43:27;;;;;;;0.30;0.30;;;18.90;94.50;;;;;;5033076;28;20213;-71
2022/05/17 05:45:52;;;;;;;0.40;0.40;;;18.90;94.40;;;;;;5033131;28;20647;-69
2022/05/17 05:48:18;;;;;;;0.60;0.60;;;18.90;94.80;;;;;;5033357;28;20193;-71
2022/05/17 05:50:44;;;;;;;0.30;0.30;;;19.00;94.90;;;;;;5033295;28;20182;-70
2022/05/17 05:53:12;;;;;;;0.30;0.30;;;19.20;95.10;;;;;;5032884;28;20202;-70
2022/05/17 05:55:38;;;;;;;0.30;0.30;;;19.40;94.90;;;;;;5033304;28;20405;-69
2022/05/17 05:58:06;;;;;;;0.30;0.30;;;19.60;94.20;;;;;;5033145;28;20429;-70
2022/05/17 06:00:33;;;;;;;0.40;0.40;;;19.90;94.20;;;;;;5033014;28;20414;-71
2022/05/17 06:02:59;;;;;;;0.30;0.30;;;20.10;94.40;;;;;;5032961;28;20504;-70
2022/05/17 06:05:25;;;;;;;0.30;0.30;;;20.10;94.00;;;;;;5033115;28;20539;-71
2022/05/17 06:07:52;;;;;;;0.30;0.30;;;20.20;94.10;;;;;;5033011;28;20434;-71
2022/05/17 06:10:19;;;;;;;0.60;0.60;;;20.30;94.10;;;;;;5033003;28;20405;-70
2022/05/17 06:12:44;;;;;;;0.30;0.30;;;20.40;94.00;;;;;;5032827;28;20791;-72
2022/05/17 06:15:11;;;;;;;0.30;0.30;;;20.40;93.90;;;;;;5033087;28;20447;-70
2022/05/17 06:17:38;;;;;;;0.30;0.30;;;20.40;94.00;;;;;;5032864;28;20175;-69
2022/05/17 06:20:05;;;;;;;0.30;0.30;;;20.40;93.70;;;;;;5032777;28;20425;-71
2022/05/17 06:22:31;;;;;;;0.30;0.30;;;20.40;93.30;;;;;;5032809;28;20412;-70
2022/05/17 06:24:57;;;;;;;0.30;0.30;;;20.50;93.80;;;;;;5032858;28;20402;-70
2022/05/17 06:27:23;;;;;;;0.47;0.47;;;20.40;93.90;;;;;;5032714;28;20175;-69
2022/05/17 06:29:48;;;;;;;0.30;0.30;;;20.90;94.10;;;;;;5032642;28;20194;-69
2022/05/17 06:32:15;;;;;;;0.30;0.30;;;21.30;92.70;;;;;;5032654;28;20400;-71
2022/05/17 06:34:42;;;;;;;0.30;0.30;;;21.60;92.10;;;;;;5036264;28;20208;-72
2022/05/17 06:37:08;;;;;;;0.30;0.30;;;22.00;92.40;;;;;;5036477;28;20929;-71
2022/05/17 06:39:35;;;;;;;0.30;0.30;;;22.50;92.40;;;;;;5036016;28;20421;-70
2022/05/17 06:42:01;;;;;;;3.30;0.90;;;23.00;91.70;;;;;;5035994;28;20405;-70
2022/05/17 06:44:27;;;;;;;0.30;0.30;;;23.30;91.10;;;;;;5036172;28;20487;-70
2022/05/17 06:46:54;;;;;;;0.47;0.47;;;24.10;90.80;;;;;;5036214;28;20388;-72
2022/05/17 06:49:21;;;;;;;0.30;0.30;;;25.30;88.50;;;;;;5036101;28;20430;-70
2022/05/17 06:51:47;;;;;;;0.50;0.40;;;26.60;84.00;;;;;;5036436;28;20406;-70
2022/05/17 06:54:12;;;;;;;0.30;0.30;;;27.50;74.40;;;;;;5035979;28;20453;-72
2022/05/17 06:56:38;;;;;;;0.70;0.70;;;28.20;72.40;;;;;;5036001;28;20763;-71
2022/05/17 06:59:04;;;;;;;0.30;0.30;;;28.90;69.90;;;;;;5035871;28;20237;-72
2022/05/17 07:01:30;;;;;;;0.80;0.80;;;29.40;67.20;;;;;;5035965;28;20175;-70
2022/05/17 07:03:55;;;;;;;0.33;0.33;;;29.40;63.40;;;;;;5035792;28;20460;-70
2022/05/17 07:06:22;;;;;;;0.40;0.40;;;29.90;62.40;;;;;;5036028;28;20494;-70
2022/05/17 07:08:48;;;;;;;0.50;0.50;;;30.10;59.70;;;;;;5035909;28;20191;-71
2022/05/17 07:13:58;;;;;;;0.37;0.37;;;28.90;57.00;;;;;;5035637;28;20236;-72
2022/05/17 07:16:24;;;;;;;0.40;0.40;;;28.40;56.80;;;;;;5035780;28;20393;-71
2022/05/17 07:18:50;;;;;;;0.30;0.30;;;27.70;57.10;;;;;;5035523;28;20430;-71
2022/05/17 07:21:16;;;;;;;0.30;0.30;;;27.40;57.20;;;;;;5035381;28;20432;-72
2022/05/17 07:23:43;;;;;;;0.60;0.60;;;27.90;57.00;;;;;;5035537;28;20622;-72
2022/05/17 07:26:10;;;;;;;0.40;0.40;;;28.80;57.30;;;;;;5035687;28;20405;-71
2022/05/17 07:28:41;;;;;;;0.30;0.30;;;29.40;56.10;;;;;;5035375;28;20426;-68
2022/05/17 07:31:07;;;;;;;0.53;0.53;;;29.30;56.70;;;;;;5035380;28;20410;-69
2022/05/17 07:33:33;;;;;;;0.30;0.30;;;29.80;55.20;;;;;;5035047;28;20945;-70
2022/05/17 07:35:58;;;;;;;0.30;0.30;;;30.00;53.20;;;;;;5035346;28;20401;-69
2022/05/17 07:38:24;;;;;;;0.30;0.30;;;30.30;50.70;;;;;;5035104;28;20226;-70
2022/05/17 07:40:50;;;;;;;0.30;0.30;;;29.60;51.40;;;;;;5035145;28;20174;-68
2022/05/17 07:43:16;;;;;;;0.30;0.30;;;30.30;53.30;;;;;;5034996;28;20167;-71
2022/05/17 07:45:42;;;;;;;0.30;0.30;;;30.60;51.00;;;;;;5035008;28;20175;-69
2022/05/17 07:48:08;;;;;;;0.30;0.30;;;30.50;49.30;;;;;;5035013;28;20520;-69
2022/05/17 07:50:34;;;;;;;0.50;0.50;;;30.00;48.90;;;;;;5034853;28;20199;-70
2022/05/17 07:53:09;;;;;;;0.30;0.30;;;30.40;48.80;;;;;;5034617;28;20511;-69
2022/05/17 07:55:39;;;;;;;0.30;0.30;;;31.00;50.70;;;;;;5034867;28;20412;-69
2022/05/17 07:58:06;;;;;;;0.40;0.40;;;32.40;48.30;;;;;;5034667;28;21021;-71
2022/05/17 08:00:32;;;;;;;0.40;0.40;;;33.10;45.40;;;;;;5034772;28;20398;-68
2022/05/17 08:02:59;;;;;;;0.70;0.70;;;33.40;45.50;;;;;;5034571;28;20893;-68
2022/05/17 08:05:27;;;;;;;0.30;0.30;;;33.60;44.20;;;;;;5034552;28;20756;-68
2022/05/17 08:07:53;;;;;;;0.30;0.30;;;33.60;44.10;;;;;;5034640;28;20436;-69
2022/05/17 08:10:19;;;;;;;0.30;0.30;;;33.70;42.50;;;;;;5034557;28;20903;-69
2022/05/17 08:12:45;;;;;;;0.50;0.50;;;33.60;42.30;;;;;;5034336;28;20572;-68
2022/05/17 08:15:11;;;;;;;0.30;0.30;;;33.80;43.20;;;;;;5034493;28;20480;-70
2022/05/17 08:17:37;;;;;;;0.50;0.50;;;33.80;42.20;;;;;;5034254;28;20175;-70
2022/05/17 08:20:07;;;;;;;0.40;0.40;;;33.90;40.80;;;;;;5034238;28;20953;-68
2022/05/17 08:22:33;;;;;;;0.40;0.40;;;33.90;42.00;;;;;;5034240;28;20163;-68
2022/05/17 08:27:44;;;;;;;0.30;0.30;;;33.40;39.50;;;;;;5034653;28;20445;-71
2022/05/17 08:30:14;;;;;;;0.30;0.30;;;32.80;40.90;;;;;;5034095;28;20434;-71
2022/05/17 08:35:44;;;;;;;0.43;0.43;;;33.70;40.90;;;;;;5034346;28;20532;-69
2022/05/17 08:38:12;;;;;;;0.30;0.30;;;34.60;39.50;;;;;;5034090;28;20422;-70
2022/05/17 08:40:57;;;;;;;0.40;0.30;;;35.30;37.70;;;;;;5034015;28;20417;-69
2022/05/17 08:43:29;;;;;;;0.53;0.40;;;35.50;38.30;;;;;;5033881;28;20401;-71
2022/05/17 08:46:17;;;;;;;0.40;0.40;;;35.80;38.10;;;;;;5033995;28;20409;-70
2022/05/17 08:49:25;;;;;;;0.30;0.30;;;35.90;38.70;;;;;;5034139;28;20444;-70
2022/05/17 08:52:11;;;;;;;0.30;0.30;;;36.10;35.90;;;;;;5033758;28;20413;-70
2022/05/17 08:54:51;;;;;;;0.60;0.60;;;36.00;36.30;;;;;;5033872;28;20477;-69
2022/05/17 08:57:42;;;;;;;0.60;0.60;;;35.80;36.30;;;;;;5033481;28;20401;-69
2022/05/17 09:00:16;;;;;;;0.30;0.30;;;35.60;35.60;;;;;;5033769;28;20409;-71
2022/05/17 09:02:49;;;;;;;0.30;0.30;;;35.60;37.20;;;;;;5033584;28;20401;-68
2022/05/17 09:05:36;;;;;;;0.60;0.60;;;34.70;37.10;;;;;;5033617;28;20405;-68
2022/05/17 09:08:11;;;;;;;0.30;0.30;;;34.40;38.50;;;;;;5033556;28;20429;-69
2022/05/17 09:10:42;;;;;;;0.30;0.30;;;34.60;38.00;;;;;;5033889;28;20412;-71
2022/05/17 09:13:18;;;;;;;0.30;0.30;;;34.80;38.90;;;;;;5033290;28;20467;-70
2022/05/17 09:15:44;;;;;;;0.30;0.30;;;34.40;37.70;;;;;;5033679;28;20398;-70
2022/05/17 09:18:14;;;;;;;0.40;0.30;;;33.80;40.70;;;;;;5033558;28;20937;-69
2022/05/17 09:20:41;;;;;;;0.40;0.40;;;34.20;38.50;;;;;;5033384;28;20770;-70
2022/05/17 09:23:08;;;;;;;0.40;0.40;;;34.20;38.90;;;;;;5033288;28;20776;-69
2022/05/17 09:25:57;;;;;;;0.30;0.30;;;34.10;39.60;;;;;;5033332;28;20402;-68
2022/05/17 09:28:28;;;;;;;0.30;0.30;;;34.20;38.40;;;;;;5032299;28;20445;-70
2022/05/17 09:31:28;;;;;;;0.30;0.30;;;34.00;39.80;;;;;;5033583;28;20417;-70
2022/05/17 09:33:57;;;;;;;0.30;0.30;;;33.80;38.60;;;;;;5010732;28;20539;-70
2022/05/17 09:36:25;;;;;;;0.30;0.30;;;33.70;38.60;;;;;;5033379;28;20406;-70
2022/05/17 09:38:53;;;;;;;0.30;0.30;;;33.60;38.70;;;;;;5033167;28;20437;-68
2022/05/17 09:41:25;;;;;;;0.30;0.30;;;32.70;40.40;;;;;;5033246;28;20401;-70
2022/05/17 09:43:51;;;;;;;0.30;0.30;;;33.40;40.00;;;;;;5033101;28;20409;-69
2022/05/17 09:46:27;;;;;;;0.30;0.30;;;33.50;40.40;;;;;;5033379;28;20402;-69
2022/05/17 09:54:43;;;;;;;0.40;0.30;;;32.50;39.90;;;;;;5033222;28;20529;-69
2022/05/17 09:57:18;;;;;;;0.60;0.57;;;32.60;40.60;;;;;;5033005;28;20496;-70
2022/05/17 09:59:46;;;;;;;0.30;0.30;;;31.90;40.20;;;;;;5033109;28;20935;-70
2022/05/17 10:02:29;;;;;;;0.30;0.30;;;30.80;42.90;;;;;;5032849;28;20398;-70
2022/05/17 10:04:56;;;;;;;0.30;0.30;;;30.40;45.10;;;;;;5033217;28;20401;-68
2022/05/17 10:07:27;;;;;;;0.30;0.30;;;30.00;43.70;;;;;;5033115;28;20826;-69
2022/05/17 10:09:53;;;;;;;0.30;0.30;;;29.30;45.60;;;;;;5036842;28;20940;-69
2022/05/17 10:12:49;;;;;;;0.30;0.30;;;28.60;46.10;;;;;;5036675;28;20405;-68
2022/05/17 10:15:15;;;;;;;0.30;0.30;;;27.80;48.80;;;;;;5032273;28;20187;-72
2022/05/17 10:17:49;;;;;;;0.50;0.50;;;27.70;50.00;;;;;;5035352;28;20455;-70
2022/05/17 10:20:27;;;;;;;0.30;0.30;;;27.90;51.10;;;;;;5036652;28;20482;-70
2022/05/17 10:23:15;;;;;;;0.30;0.30;;;28.30;50.70;;;;;;5036653;28;20401;-72
2022/05/17 10:25:44;;;;;;;0.30;0.30;;;28.60;47.50;;;;;;5036800;28;20476;-71
2022/05/17 10:28:18;;;;;;;0.30;0.30;;;28.60;45.90;;;;;;5036583;28;20979;-72
2022/05/17 10:30:57;;;;;;;0.30;0.30;;;28.30;46.70;;;;;;5036451;28;20408;-71
2022/05/17 10:33:48;;;;;;;0.30;0.30;;;27.80;47.70;;;;;;5036326;28;20449;-72
2022/05/17 10:36:43;;;;;;;0.30;0.30;;;26.70;48.80;;;;;;5036246;28;20406;-70
2022/05/17 10:39:19;;;;;;;0.40;0.30;;;25.80;50.20;;;;;;5036451;28;20781;-71
2022/05/17 10:41:45;;;;;;;0.30;0.30;;;25.30;52.60;;;;;;5036543;28;20454;-70
2022/05/17 10:44:16;;;;;;;0.40;0.40;;;24.60;53.50;;;;;;5036077;28;20405;-70
2022/05/17 10:46:48;;;;;;;0.30;0.30;;;24.50;56.60;;;;;;5036503;28;20179;-72
2022/05/17 10:49:39;;;;;;;0.80;0.80;;;24.10;58.40;;;;;;5036346;28;20428;-71
2022/05/17 10:52:18;;;;;;;0.40;0.40;;;24.00;57.20;;;;;;5035931;28;20387;-71
2022/05/17 10:55:02;;;;;;;0.30;0.30;;;24.00;58.30;;;;;;5036318;28;20453;-70
2022/05/17 10:57:54;;;;;;;0.30;0.30;;;23.70;56.80;;;;;;5036224;28;20364;-71
2022/05/17 11:00:29;;;;;;;0.50;0.50;;;23.80;59.40;;;;;;5024672;28;20400;-71
2022/05/17 11:03:16;;;;;;;0.30;0.30;;;23.80;57.70;;;;;;5035757;28;20409;-71
2022/05/17 11:05:57;;;;;;;0.30;0.30;;;23.70;59.50;;;;;;5036122;28;20917;-72
2022/05/17 11:08:52;;;;;;;0.93;0.93;;;23.70;57.80;;;;;;5035857;28;20755;-70
2022/05/17 11:11:42;;;;;;;0.30;0.30;;;23.70;60.90;;;;;;5035436;28;20460;-71
2022/05/17 11:14:16;;;;;;;0.30;0.30;;;23.70;65.30;;;;;;5035501;28;20416;-71
2022/05/17 11:17:13;;;;;;;1.40;1.20;;;23.60;63.10;;;;;;5035675;28;20406;-71
2022/05/17 11:19:56;;;;;;;0.40;0.40;;;23.60;62.60;;;;;;5030322;28;20453;-70
2022/05/17 11:22:44;;;;;;;0.30;0.30;;;24.20;64.40;;;;;;5035429;28;20403;-71
2022/05/17 11:25:17;;;;;;;0.30;0.30;;;24.60;57.50;;;;;;5035593;28;20748;-70
2022/05/17 11:27:42;;;;;;;0.30;0.30;;;24.80;58.40;;;;;;5035394;28;20748;-71
2022/05/17 11:30:14;;;;;;;0.30;0.30;;;24.90;57.20;;;;;;5035355;28;20384;-71
2022/05/17 11:33:00;;;;;;;0.30;0.30;;;25.20;58.70;;;;;;5035127;28;20523;-69
2022/05/17 11:35:29;;;;;;;0.73;0.73;;;25.70;59.10;;;;;;5035187;28;20384;-71
2022/05/17 11:37:55;;;;;;;0.30;0.30;;;26.10;53.80;;;;;;5035110;28;20417;-71
2022/05/17 11:40:52;;;;;;;0.53;0.53;;;26.00;54.10;;;;;;5035117;28;20379;-72
2022/05/17 11:43:43;;;;;;;0.30;0.30;;;25.90;54.10;;;;;;5030409;28;20457;-70
2022/05/17 11:46:38;;;;;;;0.30;0.30;;;25.90;54.50;;;;;;5032246;28;20893;-71
2022/05/17 11:49:07;;;;;;;0.30;0.30;;;25.80;53.70;;;;;;5034910;28;20930;-71
2022/05/17 11:51:36;;;;;;;0.30;0.30;;;25.50;54.60;;;;;;5035015;28;20408;-71
2022/05/17 11:54:06;;;;;;;0.40;0.40;;;25.10;54.90;;;;;;5034846;28;20453;-71
2022/05/17 11:56:39;;;;;;;0.57;0.57;;;24.90;58.00;;;;;;5035072;28;20479;-72
2022/05/17 11:59:08;;;;;;;0.30;0.30;;;24.80;58.60;;;;;;5034739;28;20418;-70
2022/05/17 12:01:35;;;;;;;0.30;0.30;;;24.70;58.90;;;;;;5034771;28;20373;-70
2022/05/17 12:04:06;;;;;;;0.30;0.30;;;24.90;57.20;;;;;;5034756;28;20816;-72
2022/05/17 12:07:04;;;;;;;0.30;0.30;;;24.80;57.20;;;;;;5034876;28;20397;-69
2022/05/17 12:09:36;;;;;;;0.60;0.60;;;24.50;56.10;;;;;;5034783;28;20479;-69
2022/05/17 12:12:14;;;;;;;0.30;0.30;;;24.70;59.90;;;;;;5034438;28;20441;-71
2022/05/17 12:15:10;;;;;;;0.30;0.30;;;24.70;58.20;;;;;;5034457;28;20427;-71
2022/05/17 12:17:44;;;;;;;0.30;0.30;;;24.50;59.30;;;;;;5034757;28;20377;-70
2022/05/17 12:20:38;;;;;;;0.30;0.30;;;24.30;57.70;;;;;;5034356;28;20496;-69
2022/05/17 12:23:16;;;;;;;0.30;0.30;;;24.20;57.30;;;;;;5034364;28;20405;-71
2022/05/17 12:26:10;;;;;;;0.30;0.30;;;24.10;58.40;;;;;;5034442;28;20731;-70
2022/05/17 12:28:53;;;;;;;0.30;0.30;;;24.00;58.20;;;;;;5034358;28;20791;-71
2022/05/17 12:31:28;;;;;;;0.30;0.30;;;23.90;61.10;;;;;;5033533;28;20884;-71
2022/05/17 12:33:55;;;;;;;0.40;0.40;;;23.70;59.40;;;;;;5032640;28;20487;-71
2022/05/17 12:36:27;;;;;;;0.40;0.40;;;23.30;59.60;;;;;;5034061;28;20917;-69
2022/05/17 12:44:50;;;;;;;0.40;0.40;;;23.00;66.50;;;;;;5033992;28;20484;-70
2022/05/17 12:47:32;;;;;;;0.40;0.40;;;22.80;71.10;;;;;;5034101;28;20405;-70
2022/05/17 12:49:59;;;;;;;0.30;0.30;;;22.60;72.10;;;;;;5033836;28;20858;-71
2022/05/17 12:52:33;;;;;;;0.30;0.30;;;22.40;73.40;;;;;;5033775;28;20405;-70
2022/05/17 12:55:06;;;;;;;0.30;0.30;;;22.40;75.40;;;;;;5033835;28;21034;-72
2022/05/17 12:57:38;;;;;;;0.30;0.30;;;22.30;69.70;;;;;;5033900;28;20409;-70
2022/05/17 13:00:11;;;;;;;0.40;0.40;;;22.40;69.10;;;;;;5033889;28;20738;-71
2022/05/17 13:02:45;;;;;;;0.43;0.43;;;22.50;68.90;;;;;;5033548;28;20405;-69
2022/05/17 13:05:35;;;;;;;0.30;0.30;;;22.50;71.40;;;;;;5033795;28;20404;-70
2022/05/17 13:08:12;;;;;;;0.30;0.30;;;22.70;66.70;;;;;;5033574;28;20475;-71
2022/05/17 13:10:41;;;;;;;0.30;0.30;;;22.70;64.80;;;;;;5033618;28;20916;-71
2022/05/17 13:13:18;;;;;;;0.30;0.30;;;22.70;64.80;;;;;;5032012;28;20892;-71
2022/05/17 13:15:47;;;;;;;0.30;0.30;;;22.90;68.50;;;;;;5033403;28;20550;-71
2022/05/17 13:18:14;;;;;;;0.40;0.40;;;23.00;75.20;;;;;;5033226;28;20479;-70
2022/05/17 13:20:40;;;;;;;0.30;0.30;;;22.90;72.40;;;;;;5033386;28;20429;-71
2022/05/17 13:23:07;;;;;;;0.30;0.30;;;23.00;76.00;;;;;;5033226;28;20842;-70
2022/05/17 13:25:39;;;;;;;0.30;0.30;;;23.00;76.60;;;;;;5033603;28;20198;-71
2022/05/17 13:28:06;;;;;;;0.50;0.50;;;23.00;72.00;;;;;;5033434;28;20441;-71